createdAt,value
2023-01-19T00:01:35.437Z,59.60
2023-01-19T00:06:37.268Z,59.50
2023-01-19T00:11:38.994Z,59.60
2023-01-19T00:16:40.770Z,59.50
2023-01-19T00:21:42.500Z,59.60
2023-01-19T00:26:44.173Z,60.60
2023-01-19T00:31:46.027Z,59.60
2023-01-19T00:36:47.809Z,59.70
2023-01-19T00:42:08.327Z,59.60
2023-01-19T00:47:10.015Z,59.50
2023-01-19T00:52:12.240Z,59.50
2023-01-19T00:57:15.001Z,59.50
2023-01-19T01:02:17.216Z,59.50
2023-01-19T01:07:19.008Z,59.50
2023-01-19T01:12:20.741Z,59.50
2023-01-19T01:17:25.209Z,59.50
2023-01-19T01:22:27.424Z,59.50
2023-01-19T01:27:29.127Z,59.50
2023-01-19T01:32:30.914Z,59.50
2023-01-19T01:37:32.671Z,59.40
2023-01-19T01:42:34.798Z,59.30
2023-01-19T01:47:47.283Z,59.20
2023-01-19T01:53:08.225Z,59.20
2023-01-19T01:58:11.186Z,59.10
2023-01-19T02:03:12.887Z,59.20
2023-01-19T02:08:33.100Z,59.30
2023-01-19T02:13:36.293Z,59.30
2023-01-19T02:18:38.111Z,59.30
2023-01-19T02:23:42.523Z,59.30
2023-01-19T02:28:48.829Z,59.40
2023-01-19T02:33:50.655Z,59.30
2023-01-19T02:38:53.741Z,59.40
2023-01-19T02:43:57.194Z,59.40
2023-01-19T02:49:01.777Z,59.50
2023-01-19T02:54:32.762Z,59.60
2023-01-19T02:59:50.378Z,59.40
2023-01-19T03:05:07.685Z,59.50
2023-01-19T03:10:17.788Z,59.30
2023-01-19T03:15:27.526Z,59.30
2023-01-19T03:20:29.287Z,59.20
2023-01-19T03:25:34.490Z,59.10
2023-01-19T03:30:39.351Z,59.10
2023-01-19T03:35:43.944Z,59.10
2023-01-19T03:40:47.787Z,59.20
2023-01-19T03:45:50.686Z,59.20
2023-01-19T03:50:52.593Z,60.20
2023-01-19T03:55:55.119Z,59.30
2023-01-19T04:00:56.875Z,59.30
2023-01-19T04:05:58.678Z,59.40
2023-01-19T04:11:00.425Z,59.50
2023-01-19T04:16:02.958Z,59.40
2023-01-19T04:21:08.201Z,59.60
2023-01-19T04:26:09.884Z,59.40
2023-01-19T04:31:11.767Z,59.50
2023-01-19T04:36:13.801Z,59.40
2023-01-19T04:41:15.661Z,59.30
2023-01-19T06:03:34.069Z,59.00
2023-01-19T06:08:36.037Z,58.40
2023-01-19T06:13:41.377Z,57.90
2023-01-19T06:18:43.883Z,57.80
2023-01-19T06:23:45.687Z,57.70
2023-01-19T06:28:48.716Z,57.30
2023-01-19T06:33:50.627Z,57.20
2023-01-19T06:38:52.423Z,57.10
2023-01-19T06:43:54.042Z,57.00
2023-01-19T06:48:55.806Z,57.10
2023-01-19T06:53:57.783Z,57.40
2023-01-19T06:58:59.527Z,57.90
2023-01-19T07:04:01.646Z,58.90
2023-01-19T07:09:07.962Z,59.50
2023-01-19T07:14:09.789Z,59.60
2023-01-19T07:19:11.774Z,59.70
2023-01-19T07:24:13.592Z,59.60
2023-01-19T07:29:15.275Z,59.50
2023-01-19T07:34:16.962Z,59.50
2023-01-19T07:39:19.067Z,59.60
2023-01-19T07:44:20.938Z,59.80
2023-01-19T07:49:22.768Z,60.00
2023-01-19T07:54:24.627Z,60.20
2023-01-19T07:59:26.832Z,60.20
2023-01-19T08:04:28.698Z,60.20
2023-01-19T08:09:30.463Z,60.10
2023-01-19T08:14:32.814Z,60.20
2023-01-19T08:19:34.643Z,60.30
2023-01-19T08:24:36.481Z,60.20
2023-01-19T08:29:38.243Z,60.30
2023-01-19T08:34:39.925Z,60.20
2023-01-19T08:39:41.540Z,60.30
2023-01-19T08:44:57.295Z,60.30
2023-01-19T08:49:59.683Z,60.40
2023-01-19T08:55:01.651Z,60.30
2023-01-19T09:00:04.530Z,60.30
2023-01-19T09:05:06.623Z,60.30
2023-01-19T09:10:08.751Z,60.30
2023-01-19T09:15:12.369Z,60.20
2023-01-19T09:20:14.100Z,60.20
2023-01-19T09:25:15.775Z,60.30
2023-01-19T09:30:17.964Z,60.20
2023-01-19T09:35:19.685Z,60.30
2023-01-19T09:40:21.366Z,60.20
2023-01-19T09:45:27.240Z,60.10
2023-01-19T09:50:34.067Z,60.20
2023-01-19T09:55:35.771Z,60.20
2023-01-19T10:00:37.926Z,60.30
2023-01-19T10:05:45.872Z,60.30
2023-01-19T10:10:51.893Z,60.40
2023-01-19T10:15:58.484Z,60.30
2023-01-19T10:21:06.087Z,60.40
2023-01-19T10:26:10.133Z,60.30
2023-01-19T10:31:12.498Z,60.30
2023-01-19T10:36:19.007Z,60.50
2023-01-19T10:41:24.549Z,60.40
2023-01-19T10:46:33.819Z,60.40
2023-01-19T10:51:46.760Z,60.40
2023-01-19T10:56:56.731Z,60.40
2023-01-19T11:02:10.574Z,60.30
2023-01-19T11:07:18.862Z,60.30
2023-01-19T11:12:22.054Z,60.40
2023-01-19T11:17:25.743Z,60.30
2023-01-19T11:22:28.969Z,60.30
2023-01-19T11:27:32.067Z,60.30
2023-01-19T11:32:36.959Z,60.30
2023-01-19T11:37:42.065Z,60.30
2023-01-19T11:42:44.806Z,60.30
2023-01-19T11:47:49.757Z,60.30
2023-01-19T11:52:55.611Z,60.30
2023-01-19T11:57:57.323Z,60.40
2023-01-19T12:03:02.815Z,60.40
2023-01-19T12:08:08.068Z,60.30
2023-01-19T12:13:21.213Z,60.40
2023-01-19T12:18:24.565Z,60.40
2023-01-19T12:23:29.492Z,60.40
2023-01-19T12:28:36.748Z,60.40
2023-01-19T12:33:38.998Z,60.40
2023-01-19T12:38:59.321Z,60.40
2023-01-19T12:44:10.458Z,60.30
2023-01-19T12:49:19.298Z,60.30
2023-01-19T12:54:28.393Z,60.30
2023-01-19T12:59:36.015Z,60.30
2023-01-19T13:04:38.402Z,60.30
2023-01-19T13:09:40.266Z,60.40
2023-01-19T13:14:43.286Z,60.50
2023-01-19T13:19:47.666Z,60.50
2023-01-19T13:25:09.710Z,60.30
2023-01-19T13:30:12.637Z,60.40
2023-01-19T13:35:17.632Z,60.30
2023-01-19T13:40:22.495Z,60.30
2023-01-19T13:45:24.463Z,60.50
2023-01-19T13:50:33.364Z,60.50
2023-01-19T13:55:34.997Z,60.40
2023-01-19T14:00:38.465Z,60.70
2023-01-19T14:05:41.683Z,60.50
2023-01-19T14:10:52.189Z,60.40
2023-01-19T14:15:56.150Z,60.50
2023-01-19T14:20:57.910Z,60.40
2023-01-19T14:25:59.744Z,60.30
2023-01-19T14:31:02.764Z,60.30
2023-01-19T14:36:15.609Z,60.30
2023-01-19T14:41:36.918Z,60.20
2023-01-19T14:46:44.255Z,60.30
2023-01-19T14:51:46.978Z,60.20
2023-01-19T14:56:49.013Z,60.10
2023-01-19T15:01:51.112Z,60.10
2023-01-19T15:06:52.963Z,60.10
2023-01-19T15:11:54.791Z,60.10
2023-01-19T15:16:57.304Z,60.10
2023-01-19T15:21:59.533Z,60.10
2023-01-19T15:27:02.696Z,60.10
2023-01-19T15:32:04.519Z,60.00
2023-01-19T15:37:06.404Z,60.00
2023-01-19T15:42:14.274Z,60.00
2023-01-19T15:47:16.266Z,60.00
2023-01-19T15:52:18.413Z,60.00
2023-01-19T15:57:20.089Z,60.00
2023-01-19T16:02:22.019Z,61.00
2023-01-19T16:07:23.872Z,60.00
2023-01-19T16:12:25.726Z,60.10
2023-01-19T16:17:27.635Z,60.30
2023-01-19T16:22:29.493Z,60.40
2023-01-19T16:27:31.383Z,60.30
2023-01-19T16:32:33.562Z,60.20
2023-01-19T16:37:36.314Z,59.80
2023-01-19T16:42:39.127Z,59.40
2023-01-19T16:47:41.458Z,59.10
2023-01-19T16:52:43.196Z,59.00
2023-01-19T16:57:45.182Z,59.70
2023-01-19T17:02:46.886Z,62.00
2023-01-19T17:07:48.778Z,60.00
2023-01-19T17:12:50.935Z,65.10
2023-01-19T17:17:52.737Z,60.20
2023-01-19T17:22:56.046Z,58.40
2023-01-19T17:27:58.958Z,57.90
2023-01-19T17:33:00.948Z,57.90
2023-01-19T17:38:02.748Z,58.50
2023-01-19T17:43:04.644Z,59.30
2023-01-19T17:48:06.504Z,59.30
2023-01-19T17:53:08.211Z,59.10
2023-01-19T17:58:09.980Z,59.00
2023-01-19T18:03:11.576Z,58.90
2023-01-19T18:08:13.480Z,58.90
2023-01-19T18:13:15.294Z,58.80
2023-01-19T18:18:17.097Z,58.70
2023-01-19T18:23:19.072Z,58.40
2023-01-19T18:28:20.851Z,58.30
2023-01-19T18:33:22.921Z,58.20
2023-01-19T18:38:24.814Z,58.20
2023-01-19T18:43:26.905Z,58.20
2023-01-19T18:48:28.734Z,58.10
2023-01-19T18:53:31.739Z,58.00
2023-01-19T18:58:34.055Z,57.70
2023-01-19T19:03:35.724Z,57.50
2023-01-19T19:08:37.363Z,57.50
2023-01-19T19:13:58.505Z,57.40
2023-01-19T19:19:00.305Z,57.40
2023-01-19T19:24:02.145Z,57.50
2023-01-19T19:29:04.421Z,57.30
2023-01-19T19:34:06.278Z,57.10
2023-01-19T19:39:08.072Z,57.20
2023-01-19T19:44:12.855Z,57.20
2023-01-19T19:49:17.831Z,57.30
2023-01-19T19:54:19.605Z,57.20
2023-01-19T19:59:21.477Z,57.10
2023-01-19T20:04:25.634Z,57.10
2023-01-19T20:09:27.541Z,57.10
2023-01-19T20:14:29.497Z,57.40
2023-01-19T20:19:32.627Z,57.60
2023-01-19T20:24:34.493Z,57.80
2023-01-19T20:29:36.179Z,58.10
2023-01-19T20:34:38.558Z,58.30
2023-01-19T20:39:41.747Z,58.50
2023-01-19T20:44:43.683Z,58.70
2023-01-19T20:49:45.540Z,58.80
2023-01-19T20:54:47.579Z,59.10
2023-01-19T20:59:49.464Z,59.20
2023-01-19T21:04:53.378Z,59.20
2023-01-19T21:09:55.428Z,59.40
2023-01-19T21:14:57.341Z,59.50
2023-01-19T21:19:59.263Z,59.60
2023-01-19T21:25:01.100Z,59.60
2023-01-19T21:30:02.899Z,59.70
2023-01-19T21:35:04.772Z,59.80
2023-01-19T21:40:06.852Z,59.80
2023-01-19T21:45:08.865Z,59.80
2023-01-19T21:50:10.793Z,59.90
2023-01-19T21:55:12.938Z,59.90
2023-01-19T22:00:15.153Z,59.60
2023-01-19T22:05:16.933Z,59.60
2023-01-19T22:10:19.171Z,59.60
2023-01-19T22:15:21.191Z,59.60
2023-01-19T22:20:23.163Z,59.80
2023-01-19T22:25:27.829Z,60.60
2023-01-19T22:30:29.867Z,59.80
2023-01-19T22:35:31.653Z,59.80
2023-01-19T22:40:33.470Z,59.90
2023-01-19T22:45:35.251Z,59.80
2023-01-19T22:50:37.035Z,59.80
2023-01-19T22:55:38.920Z,59.90
2023-01-19T23:00:40.659Z,59.80
2023-01-19T23:05:42.520Z,59.70
2023-01-19T23:10:44.577Z,59.70
2023-01-19T23:15:46.481Z,59.80
2023-01-19T23:20:51.001Z,59.70
2023-01-19T23:25:52.672Z,59.60
2023-01-19T23:30:54.663Z,59.70
2023-01-19T23:35:56.614Z,59.80
2023-01-19T23:40:58.305Z,59.60
2023-01-19T23:46:07.060Z,59.90
2023-01-19T23:51:10.097Z,59.50
2023-01-19T23:56:22.223Z,59.30
